sensor_id;sensor_type;location;lat;lon;timestamp;pressure;altitude;pressure_sealevel;temperature;humidity
40788;BME280;26497;52.494;7.546;2023-12-14T00:00:19;100193.91;;;9.76;69.53
40788;BME280;26497;52.494;7.546;2023-12-14T00:02:46;100200.81;;;9.95;69.81
40788;BME280;26497;52.494;7.546;2023-12-14T00:05:13;100190.25;;;10.03;68.89
40788;BME280;26497;52.494;7.546;2023-12-14T00:07:40;100199.06;;;9.99;69.53
40788;BME280;26497;52.494;7.546;2023-12-14T00:10:08;100188.41;;;10.13;69.13
40788;BME280;26497;52.494;7.546;2023-12-14T00:12:35;100197.06;;;10.33;68.39
40788;BME280;26497;52.494;7.546;2023-12-14T00:15:03;100203.25;;;10.29;67.76
40788;BME280;26497;52.494;7.546;2023-12-14T00:17:31;100203.28;;;10.26;67.67
40788;BME280;26497;52.494;7.546;2023-12-14T00:19:59;100214.00;;;9.94;67.71
40788;BME280;26497;52.494;7.546;2023-12-14T00:22:26;100228.75;;;10.27;66.89
40788;BME280;26497;52.494;7.546;2023-12-14T00:24:53;100234.03;;;10.24;66.82
40788;BME280;26497;52.494;7.546;2023-12-14T00:27:20;100243.72;;;10.19;66.53
40788;BME280;26497;52.494;7.546;2023-12-14T00:29:47;100243.84;;;9.99;67.28
40788;BME280;26497;52.494;7.546;2023-12-14T00:32:14;100251.63;;;10.16;67.29
40788;BME280;26497;52.494;7.546;2023-12-14T00:34:43;100255.13;;;10.24;66.79
40788;BME280;26497;52.494;7.546;2023-12-14T00:37:10;100267.50;;;10.07;67.17
40788;BME280;26497;52.494;7.546;2023-12-14T00:39:40;100266.66;;;10.00;67.97
40788;BME280;26497;52.494;7.546;2023-12-14T00:42:07;100273.69;;;9.98;67.24
40788;BME280;26497;52.494;7.546;2023-12-14T00:44:34;100279.06;;;9.74;68.21
40788;BME280;26497;52.494;7.546;2023-12-14T00:47:01;100277.28;;;9.83;68.43
40788;BME280;26497;52.494;7.546;2023-12-14T00:49:28;100273.81;;;9.61;69.35
40788;BME280;26497;52.494;7.546;2023-12-14T00:51:57;100287.00;;;9.59;69.40
40788;BME280;26497;52.494;7.546;2023-12-14T00:54:24;100294.03;;;9.48;69.66
40788;BME280;26497;52.494;7.546;2023-12-14T00:56:51;100298.44;;;9.42;70.42
40788;BME280;26497;52.494;7.546;2023-12-14T00:59:18;100303.69;;;9.42;70.18
40788;BME280;26497;52.494;7.546;2023-12-14T01:01:45;100294.06;;;9.27;70.46
40788;BME280;26497;52.494;7.546;2023-12-14T01:04:12;100296.72;;;9.27;70.48
40788;BME280;26497;52.494;7.546;2023-12-14T01:06:40;100307.22;;;9.41;70.11
40788;BME280;26497;52.494;7.546;2023-12-14T01:09:08;100322.09;;;9.59;68.88
40788;BME280;26497;52.494;7.546;2023-12-14T01:11:35;100317.66;;;9.71;68.91
40788;BME280;26497;52.494;7.546;2023-12-14T01:14:02;100325.63;;;9.41;69.36
40788;BME280;26497;52.494;7.546;2023-12-14T01:16:30;100332.63;;;9.61;68.82
40788;BME280;26497;52.494;7.546;2023-12-14T01:18:57;100336.13;;;9.46;69.33
40788;BME280;26497;52.494;7.546;2023-12-14T01:21:24;100330.03;;;9.36;69.68
40788;BME280;26497;52.494;7.546;2023-12-14T01:23:51;100334.34;;;9.74;68.33
40788;BME280;26497;52.494;7.546;2023-12-14T01:26:20;100335.22;;;9.81;68.11
40788;BME280;26497;52.494;7.546;2023-12-14T01:28:47;100340.50;;;9.72;67.50
40788;BME280;26497;52.494;7.546;2023-12-14T01:31:14;100340.53;;;9.46;68.62
40788;BME280;26497;52.494;7.546;2023-12-14T01:33:41;100355.47;;;9.50;68.52
40788;BME280;26497;52.494;7.546;2023-12-14T01:36:09;100351.91;;;9.76;67.84
40788;BME280;26497;52.494;7.546;2023-12-14T01:38:36;100364.19;;;9.86;67.35
40788;BME280;26497;52.494;7.546;2023-12-14T01:41:04;100357.09;;;9.97;66.80
40788;BME280;26497;52.494;7.546;2023-12-14T01:43:32;100365.03;;;9.99;66.32
40788;BME280;26497;52.494;7.546;2023-12-14T01:45:59;100375.56;;;10.02;66.49
40788;BME280;26497;52.494;7.546;2023-12-14T01:48:27;100377.28;;;10.04;66.12
40788;BME280;26497;52.494;7.546;2023-12-14T01:50:54;100383.50;;;9.91;66.35
40788;BME280;26497;52.494;7.546;2023-12-14T01:53:21;100391.44;;;9.54;67.82
40788;BME280;26497;52.494;7.546;2023-12-14T01:55:48;100400.19;;;9.78;67.31
40788;BME280;26497;52.494;7.546;2023-12-14T01:58:16;100408.03;;;9.96;66.69
40788;BME280;26497;52.494;7.546;2023-12-14T02:00:49;100401.88;;;10.03;65.95
40788;BME280;26497;52.494;7.546;2023-12-14T02:03:18;100408.94;;;9.97;66.19
40788;BME280;26497;52.494;7.546;2023-12-14T02:05:46;100416.00;;;9.57;67.47
40788;BME280;26497;52.494;7.546;2023-12-14T02:08:13;100413.38;;;9.65;67.48
40788;BME280;26497;52.494;7.546;2023-12-14T02:10:40;100416.00;;;9.61;67.87
40788;BME280;26497;52.494;7.546;2023-12-14T02:13:07;100429.16;;;9.68;67.45
40788;BME280;26497;52.494;7.546;2023-12-14T02:15:34;100425.66;;;9.79;67.41
40788;BME280;26497;52.494;7.546;2023-12-14T02:18:04;100425.66;;;9.69;67.27
40788;BME280;26497;52.494;7.546;2023-12-14T02:20:31;100422.13;;;9.53;68.18
40788;BME280;26497;52.494;7.546;2023-12-14T02:22:59;100423.03;;;9.72;67.66
40788;BME280;26497;52.494;7.546;2023-12-14T02:25:27;100430.03;;;9.70;67.49
40788;BME280;26497;52.494;7.546;2023-12-14T02:27:54;100432.69;;;9.73;67.25
40788;BME280;26497;52.494;7.546;2023-12-14T02:30:22;100436.16;;;9.80;66.45
40788;BME280;26497;52.494;7.546;2023-12-14T02:32:49;100444.97;;;9.81;66.68
40788;BME280;26497;52.494;7.546;2023-12-14T02:35:16;100443.22;;;9.86;66.51
40788;BME280;26497;52.494;7.546;2023-12-14T02:37:44;100437.06;;;9.70;66.96
40788;BME280;26497;52.494;7.546;2023-12-14T02:40:14;100437.94;;;9.78;66.86
40788;BME280;26497;52.494;7.546;2023-12-14T02:42:41;100445.84;;;9.80;66.40
40788;BME280;26497;52.494;7.546;2023-12-14T02:45:09;100441.44;;;9.49;67.41
40788;BME280;26497;52.494;7.546;2023-12-14T02:47:37;100452.84;;;9.73;67.12
40788;BME280;26497;52.494;7.546;2023-12-14T02:50:05;100451.13;;;9.80;66.79
40788;BME280;26497;52.494;7.546;2023-12-14T02:52:32;100452.84;;;9.50;67.37
40788;BME280;26497;52.494;7.546;2023-12-14T02:55:00;100455.47;;;9.79;66.33
40788;BME280;26497;52.494;7.546;2023-12-14T02:57:28;100459.00;;;9.83;66.40
40788;BME280;26497;52.494;7.546;2023-12-14T02:59:56;100469.53;;;9.77;66.57
40788;BME280;26497;52.494;7.546;2023-12-14T03:02:23;100466.00;;;9.95;66.24
40788;BME280;26497;52.494;7.546;2023-12-14T03:04:50;100474.78;;;9.95;65.59
40788;BME280;26497;52.494;7.546;2023-12-14T03:07:17;100478.31;;;9.79;66.31
40788;BME280;26497;52.494;7.546;2023-12-14T03:09:45;100478.31;;;9.88;65.69
40788;BME280;26497;52.494;7.546;2023-12-14T03:12:12;100480.09;;;9.86;66.53
40788;BME280;26497;52.494;7.546;2023-12-14T03:14:40;100487.06;;;9.96;65.57
40788;BME280;26497;52.494;7.546;2023-12-14T03:17:08;100480.97;;;9.72;66.11
40788;BME280;26497;52.494;7.546;2023-12-14T03:19:39;100487.06;;;9.37;67.76
40788;BME280;26497;52.494;7.546;2023-12-14T03:22:07;100491.44;;;9.38;68.02
40788;BME280;26497;52.494;7.546;2023-12-14T03:24:34;100489.66;;;9.15;68.67
40788;BME280;26497;52.494;7.546;2023-12-14T03:27:02;100487.06;;;9.57;67.92
40788;BME280;26497;52.494;7.546;2023-12-14T03:29:30;100502.88;;;9.59;67.28
40788;BME280;26497;52.494;7.546;2023-12-14T03:31:58;100502.88;;;9.64;67.35
40788;BME280;26497;52.494;7.546;2023-12-14T03:34:26;100514.31;;;9.67;66.96
40788;BME280;26497;52.494;7.546;2023-12-14T03:36:53;100502.88;;;9.64;66.92
40788;BME280;26497;52.494;7.546;2023-12-14T03:39:20;100510.75;;;9.34;67.88
40788;BME280;26497;52.494;7.546;2023-12-14T03:41:47;100514.28;;;9.50;67.38
40788;BME280;26497;52.494;7.546;2023-12-14T03:44:14;100514.22;;;9.32;68.13
40788;BME280;26497;52.494;7.546;2023-12-14T03:46:41;100523.06;;;9.54;67.39
40788;BME280;26497;52.494;7.546;2023-12-14T03:49:10;100532.72;;;9.55;66.98
40788;BME280;26497;52.494;7.546;2023-12-14T03:51:37;100536.25;;;9.63;67.17
40788;BME280;26497;52.494;7.546;2023-12-14T03:54:04;100537.13;;;9.74;65.92
40788;BME280;26497;52.494;7.546;2023-12-14T03:56:31;100536.25;;;9.79;65.64
40788;BME280;26497;52.494;7.546;2023-12-14T03:58:58;100553.81;;;9.84;65.41
40788;BME280;26497;52.494;7.546;2023-12-14T04:01:26;100557.34;;;9.93;65.22
40788;BME280;26497;52.494;7.546;2023-12-14T04:03:54;100556.44;;;9.87;64.90
40788;BME280;26497;52.494;7.546;2023-12-14T04:06:23;100562.59;;;9.69;65.53
40788;BME280;26497;52.494;7.546;2023-12-14T04:08:50;100573.09;;;9.65;65.83
40788;BME280;26497;52.494;7.546;2023-12-14T04:11:18;100584.50;;;9.57;66.12
40788;BME280;26497;52.494;7.546;2023-12-14T04:13:45;100577.41;;;9.41;66.45
40788;BME280;26497;52.494;7.546;2023-12-14T04:16:11;100585.41;;;9.70;65.91
40788;BME280;26497;52.494;7.546;2023-12-14T04:18:38;100579.31;;;9.90;65.20
40788;BME280;26497;52.494;7.546;2023-12-14T04:21:06;100584.56;;;9.88;65.32
40788;BME280;26497;52.494;7.546;2023-12-14T04:23:35;100589.81;;;9.82;65.70
40788;BME280;26497;52.494;7.546;2023-12-14T04:26:02;100601.25;;;9.86;65.08
40788;BME280;26497;52.494;7.546;2023-12-14T04:28:30;100600.34;;;9.71;65.35
40788;BME280;26497;52.494;7.546;2023-12-14T04:30:57;100610.00;;;9.72;65.15
40788;BME280;26497;52.494;7.546;2023-12-14T04:33:24;100611.72;;;9.58;65.43
40788;BME280;26497;52.494;7.546;2023-12-14T04:35:51;100613.34;;;9.22;66.33
40788;BME280;26497;52.494;7.546;2023-12-14T04:38:18;100608.13;;;9.37;66.30
40788;BME280;26497;52.494;7.546;2023-12-14T04:40:47;100609.88;;;9.32;66.09
40788;BME280;26497;52.494;7.546;2023-12-14T04:43:14;100618.63;;;9.29;65.99
40788;BME280;26497;52.494;7.546;2023-12-14T04:45:41;100622.16;;;9.36;65.88
40788;BME280;26497;52.494;7.546;2023-12-14T04:48:08;100620.53;;;9.66;65.31
40788;BME280;26497;52.494;7.546;2023-12-14T04:50:35;100630.19;;;9.81;64.63
40788;BME280;26497;52.494;7.546;2023-12-14T04:53:03;100631.97;;;9.78;64.55
40788;BME280;26497;52.494;7.546;2023-12-14T04:55:30;100636.31;;;9.66;64.28
40788;BME280;26497;52.494;7.546;2023-12-14T04:57:59;100641.63;;;9.79;62.90
40788;BME280;26497;52.494;7.546;2023-12-14T05:00:26;100651.25;;;9.75;62.80
40788;BME280;26497;52.494;7.546;2023-12-14T05:02:53;100652.88;;;9.39;64.36
40788;BME280;26497;52.494;7.546;2023-12-14T05:05:21;100648.59;;;9.66;63.08
40788;BME280;26497;52.494;7.546;2023-12-14T05:07:48;100650.38;;;9.71;62.92
40788;BME280;26497;52.494;7.546;2023-12-14T05:10:15;100656.47;;;9.63;63.26
40788;BME280;26497;52.494;7.546;2023-12-14T05:12:42;100652.13;;;9.66;62.43
40788;BME280;26497;52.494;7.546;2023-12-14T05:15:11;100656.50;;;9.64;63.13
40788;BME280;26497;52.494;7.546;2023-12-14T05:17:39;100656.59;;;9.92;62.20
40788;BME280;26497;52.494;7.546;2023-12-14T05:20:09;100659.13;;;9.66;62.69
40788;BME280;26497;52.494;7.546;2023-12-14T05:22:36;100665.34;;;9.94;61.27
40788;BME280;26497;52.494;7.546;2023-12-14T05:25:04;100657.41;;;9.72;61.83
40788;BME280;26497;52.494;7.546;2023-12-14T05:27:31;100673.13;;;9.51;62.99
40788;BME280;26497;52.494;7.546;2023-12-14T05:29:58;100677.50;;;9.49;63.39
40788;BME280;26497;52.494;7.546;2023-12-14T05:32:27;100681.94;;;9.62;62.06
40788;BME280;26497;52.494;7.546;2023-12-14T05:34:54;100681.13;;;9.80;61.70
40788;BME280;26497;52.494;7.546;2023-12-14T05:37:21;100682.84;;;9.70;62.05
40788;BME280;26497;52.494;7.546;2023-12-14T05:39:48;100687.09;;;9.42;62.93
40788;BME280;26497;52.494;7.546;2023-12-14T05:42:16;100685.47;;;9.64;62.99
40788;BME280;26497;52.494;7.546;2023-12-14T05:44:43;100681.88;;;9.51;62.49
40788;BME280;26497;52.494;7.546;2023-12-14T05:47:11;100688.94;;;9.54;62.87
40788;BME280;26497;52.494;7.546;2023-12-14T05:49:42;100701.28;;;9.70;62.84
40788;BME280;26497;52.494;7.546;2023-12-14T05:52:10;100706.56;;;9.73;62.43
40788;BME280;26497;52.494;7.546;2023-12-14T05:54:37;100714.50;;;9.84;62.36
40788;BME280;26497;52.494;7.546;2023-12-14T05:57:05;100722.44;;;9.92;61.70
40788;BME280;26497;52.494;7.546;2023-12-14T05:59:33;100734.69;;;9.81;61.88
40788;BME280;26497;52.494;7.546;2023-12-14T06:02:00;100743.38;;;9.61;60.83
40788;BME280;26497;52.494;7.546;2023-12-14T06:04:28;100744.16;;;9.46;61.12
40788;BME280;26497;52.494;7.546;2023-12-14T06:06:56;100745.06;;;9.51;60.65
40788;BME280;26497;52.494;7.546;2023-12-14T06:09:24;100752.97;;;9.51;61.25
40788;BME280;26497;52.494;7.546;2023-12-14T06:11:59;100753.81;;;9.44;61.49
40788;BME280;26497;52.494;7.546;2023-12-14T06:14:26;100758.91;;;9.16;62.15
40788;BME280;26497;52.494;7.546;2023-12-14T06:16:54;100764.41;;;9.55;60.99
40788;BME280;26497;52.494;7.546;2023-12-14T06:19:21;100761.00;;;9.71;60.24
40788;BME280;26497;52.494;7.546;2023-12-14T06:21:48;100767.09;;;9.69;60.52
40788;BME280;26497;52.494;7.546;2023-12-14T06:24:17;100774.16;;;9.71;60.73
40788;BME280;26497;52.494;7.546;2023-12-14T06:26:45;100786.50;;;9.82;59.75
40788;BME280;26497;52.494;7.546;2023-12-14T06:29:12;100803.19;;;9.85;60.18
40788;BME280;26497;52.494;7.546;2023-12-14T06:31:40;100801.41;;;9.77;60.25
40788;BME280;26497;52.494;7.546;2023-12-14T06:34:07;100807.28;;;9.35;61.03
40788;BME280;26497;52.494;7.546;2023-12-14T06:36:34;100816.09;;;9.40;61.20
40788;BME280;26497;52.494;7.546;2023-12-14T06:39:02;100817.91;;;9.52;59.94
40788;BME280;26497;52.494;7.546;2023-12-14T06:41:32;100826.66;;;9.47;60.39
40788;BME280;26497;52.494;7.546;2023-12-14T06:43:59;100834.59;;;9.51;59.55
40788;BME280;26497;52.494;7.546;2023-12-14T06:46:26;100839.91;;;9.56;59.80
40788;BME280;26497;52.494;7.546;2023-12-14T06:48:53;100838.97;;;9.51;60.08
40788;BME280;26497;52.494;7.546;2023-12-14T06:51:21;100834.69;;;9.67;59.69
40788;BME280;26497;52.494;7.546;2023-12-14T06:53:49;100844.28;;;9.58;60.11
40788;BME280;26497;52.494;7.546;2023-12-14T06:56:16;100847.91;;;9.71;60.28
40788;BME280;26497;52.494;7.546;2023-12-14T06:58:45;100855.00;;;9.86;58.67
40788;BME280;26497;52.494;7.546;2023-12-14T07:01:15;100850.56;;;9.78;58.77
40788;BME280;26497;52.494;7.546;2023-12-14T07:03:44;100848.81;;;9.77;59.11
40788;BME280;26497;52.494;7.546;2023-12-14T07:06:12;100859.31;;;9.75;59.12
40788;BME280;26497;52.494;7.546;2023-12-14T07:08:40;100863.69;;;9.73;59.55
40788;BME280;26497;52.494;7.546;2023-12-14T07:11:08;100874.25;;;9.76;59.75
40788;BME280;26497;52.494;7.546;2023-12-14T07:13:35;100875.19;;;9.86;59.88
40788;BME280;26497;52.494;7.546;2023-12-14T07:16:06;100876.81;;;9.65;59.74
40788;BME280;26497;52.494;7.546;2023-12-14T07:18:34;100886.56;;;9.79;59.75
40788;BME280;26497;52.494;7.546;2023-12-14T07:21:02;100884.88;;;9.90;59.06
40788;BME280;26497;52.494;7.546;2023-12-14T07:23:29;100893.66;;;9.86;59.38
40788;BME280;26497;52.494;7.546;2023-12-14T07:25:57;100885.69;;;9.80;59.79
40788;BME280;26497;52.494;7.546;2023-12-14T07:28:24;100898.06;;;9.90;59.83
40788;BME280;26497;52.494;7.546;2023-12-14T07:30:52;100894.53;;;9.94;59.97
40788;BME280;26497;52.494;7.546;2023-12-14T07:33:20;100905.06;;;9.85;60.22
40788;BME280;26497;52.494;7.546;2023-12-14T07:35:48;100901.53;;;9.83;60.49
40788;BME280;26497;52.494;7.546;2023-12-14T07:38:15;100905.06;;;9.94;60.24
40788;BME280;26497;52.494;7.546;2023-12-14T07:40:42;100908.66;;;10.06;60.19
40788;BME280;26497;52.494;7.546;2023-12-14T07:43:09;100924.50;;;10.10;59.70
40788;BME280;26497;52.494;7.546;2023-12-14T07:45:36;100924.50;;;10.12;59.43
40788;BME280;26497;52.494;7.546;2023-12-14T07:48:04;100926.19;;;10.00;60.19
40788;BME280;26497;52.494;7.546;2023-12-14T07:50:32;100923.53;;;9.97;60.17
40788;BME280;26497;52.494;7.546;2023-12-14T07:52:59;100923.59;;;10.07;60.55
40788;BME280;26497;52.494;7.546;2023-12-14T07:55:27;100924.50;;;10.09;60.48
40788;BME280;26497;52.494;7.546;2023-12-14T07:57:54;100924.50;;;10.12;60.47
40788;BME280;26497;52.494;7.546;2023-12-14T08:00:22;100943.00;;;10.16;60.50
40788;BME280;26497;52.494;7.546;2023-12-14T08:02:49;100939.50;;;10.22;60.53
40788;BME280;26497;52.494;7.546;2023-12-14T08:05:16;100945.66;;;10.24;60.32
40788;BME280;26497;52.494;7.546;2023-12-14T08:07:45;100949.16;;;10.20;61.11
40788;BME280;26497;52.494;7.546;2023-12-14T08:10:13;100947.44;;;10.25;60.88
40788;BME280;26497;52.494;7.546;2023-12-14T08:12:40;100958.00;;;10.27;61.15
40788;BME280;26497;52.494;7.546;2023-12-14T08:15:09;100963.28;;;10.31;61.16
40788;BME280;26497;52.494;7.546;2023-12-14T08:17:37;100970.34;;;10.37;61.00
40788;BME280;26497;52.494;7.546;2023-12-14T08:20:09;100972.97;;;10.36;61.33
40788;BME280;26497;52.494;7.546;2023-12-14T08:22:38;100978.34;;;10.46;61.05
40788;BME280;26497;52.494;7.546;2023-12-14T08:25:12;100988.03;;;10.51;60.69
40788;BME280;26497;52.494;7.546;2023-12-14T08:27:40;100990.66;;;10.52;60.70
40788;BME280;26497;52.494;7.546;2023-12-14T08:30:09;100990.66;;;10.52;61.10
40788;BME280;26497;52.494;7.546;2023-12-14T08:32:37;100996.84;;;10.57;61.18
40788;BME280;26497;52.494;7.546;2023-12-14T08:35:05;101000.38;;;10.59;61.23
40788;BME280;26497;52.494;7.546;2023-12-14T08:37:32;101000.41;;;10.66;61.27
40788;BME280;26497;52.494;7.546;2023-12-14T08:39:59;101010.09;;;10.67;61.26
40788;BME280;26497;52.494;7.546;2023-12-14T08:42:28;101016.22;;;10.67;61.27
40788;BME280;26497;52.494;7.546;2023-12-14T08:44:55;101020.63;;;10.71;61.48
40788;BME280;26497;52.494;7.546;2023-12-14T08:47:22;101024.19;;;10.76;61.51
40788;BME280;26497;52.494;7.546;2023-12-14T08:49:49;101032.09;;;10.75;61.28
40788;BME280;26497;52.494;7.546;2023-12-14T08:52:18;101039.16;;;10.81;61.14
40788;BME280;26497;52.494;7.546;2023-12-14T08:54:45;101036.53;;;10.82;61.43
40788;BME280;26497;52.494;7.546;2023-12-14T08:57:13;101048.88;;;10.86;61.39
40788;BME280;26497;52.494;7.546;2023-12-14T08:59:41;101054.13;;;10.88;61.23
40788;BME280;26497;52.494;7.546;2023-12-14T09:02:08;101060.31;;;10.91;61.04
40788;BME280;26497;52.494;7.546;2023-12-14T09:04:35;101057.69;;;10.88;61.49
40788;BME280;26497;52.494;7.546;2023-12-14T09:07:03;101059.44;;;10.91;61.35
40788;BME280;26497;52.494;7.546;2023-12-14T09:09:30;101059.47;;;10.96;61.40
40788;BME280;26497;52.494;7.546;2023-12-14T09:11:58;101057.75;;;11.04;61.30
40788;BME280;26497;52.494;7.546;2023-12-14T09:14:25;101058.63;;;11.07;61.41
40788;BME280;26497;52.494;7.546;2023-12-14T09:16:54;101067.50;;;11.20;61.19
40788;BME280;26497;52.494;7.546;2023-12-14T09:19:21;101067.50;;;11.28;60.98
40788;BME280;26497;52.494;7.546;2023-12-14T09:21:49;101071.91;;;11.32;60.74
40788;BME280;26497;52.494;7.546;2023-12-14T09:24:16;101065.72;;;11.32;60.83
40788;BME280;26497;52.494;7.546;2023-12-14T09:26:43;101079.84;;;11.37;60.46
40788;BME280;26497;52.494;7.546;2023-12-14T09:29:10;101078.97;;;11.40;60.60
40788;BME280;26497;52.494;7.546;2023-12-14T09:31:41;101079.84;;;11.43;60.61
40788;BME280;26497;52.494;7.546;2023-12-14T09:34:09;101086.03;;;11.48;60.33
40788;BME280;26497;52.494;7.546;2023-12-14T09:36:37;101077.25;;;11.48;59.86
40788;BME280;26497;52.494;7.546;2023-12-14T09:39:04;101083.38;;;11.45;59.81
40788;BME280;26497;52.494;7.546;2023-12-14T09:41:36;101079.00;;;11.49;59.71
40788;BME280;26497;52.494;7.546;2023-12-14T09:44:04;101091.34;;;11.50;59.79
40788;BME280;26497;52.494;7.546;2023-12-14T09:46:32;101097.47;;;11.44;59.93
40788;BME280;26497;52.494;7.546;2023-12-14T09:49:00;101097.47;;;11.44;59.98
40788;BME280;26497;52.494;7.546;2023-12-14T09:51:30;101105.41;;;11.50;59.78
40788;BME280;26497;52.494;7.546;2023-12-14T09:53:57;101107.16;;;11.51;59.37
40788;BME280;26497;52.494;7.546;2023-12-14T09:56:25;101113.34;;;11.54;59.63
40788;BME280;26497;52.494;7.546;2023-12-14T09:58:52;101124.81;;;11.54;59.13
40788;BME280;26497;52.494;7.546;2023-12-14T10:01:23;101116.84;;;11.53;59.71
40788;BME280;26497;52.494;7.546;2023-12-14T10:03:52;101123.91;;;11.57;59.61
40788;BME280;26497;52.494;7.546;2023-12-14T10:06:35;101127.44;;;11.59;59.50
40788;BME280;26497;52.494;7.546;2023-12-14T10:09:03;101120.41;;;11.59;59.65
40788;BME280;26497;52.494;7.546;2023-12-14T10:11:30;101138.00;;;11.62;59.73
40788;BME280;26497;52.494;7.546;2023-12-14T10:13:57;101136.25;;;11.61;59.85
40788;BME280;26497;52.494;7.546;2023-12-14T10:16:30;101137.16;;;11.61;59.86
40788;BME280;26497;52.494;7.546;2023-12-14T10:18:58;101134.53;;;11.71;59.15
40788;BME280;26497;52.494;7.546;2023-12-14T10:21:26;101134.50;;;11.66;59.30
40788;BME280;26497;52.494;7.546;2023-12-14T10:23:57;101144.22;;;11.65;59.22
40788;BME280;26497;52.494;7.546;2023-12-14T10:26:25;101139.81;;;11.69;59.29
40788;BME280;26497;52.494;7.546;2023-12-14T10:28:53;101123.97;;;11.72;59.25
40788;BME280;26497;52.494;7.546;2023-12-14T10:31:20;101125.69;;;11.58;59.87
40788;BME280;26497;52.494;7.546;2023-12-14T10:33:48;101124.84;;;11.71;59.14
40788;BME280;26497;52.494;7.546;2023-12-14T10:36:18;101140.72;;;11.80;59.08
40788;BME280;26497;52.494;7.546;2023-12-14T10:38:48;101145.16;;;11.97;59.13
40788;BME280;26497;52.494;7.546;2023-12-14T10:41:21;101146.97;;;12.20;58.72
40788;BME280;26497;52.494;7.546;2023-12-14T10:43:51;101150.50;;;12.28;58.56
40788;BME280;26497;52.494;7.546;2023-12-14T10:46:20;101160.19;;;12.40;57.99
40788;BME280;26497;52.494;7.546;2023-12-14T10:48:50;101173.41;;;12.52;57.44
40788;BME280;26497;52.494;7.546;2023-12-14T10:51:20;101180.47;;;12.53;57.18
40788;BME280;26497;52.494;7.546;2023-12-14T10:53:48;101174.28;;;12.54;57.21
40788;BME280;26497;52.494;7.546;2023-12-14T10:56:19;101179.59;;;12.53;57.07
40788;BME280;26497;52.494;7.546;2023-12-14T10:58:50;101185.78;;;12.52;57.10
40788;BME280;26497;52.494;7.546;2023-12-14T11:01:21;101184.00;;;12.51;57.30
40788;BME280;26497;52.494;7.546;2023-12-14T11:03:51;101182.25;;;12.50;57.23
40788;BME280;26497;52.494;7.546;2023-12-14T11:06:29;101176.97;;;12.53;56.95
40788;BME280;26497;52.494;7.546;2023-12-14T11:08:58;101191.06;;;12.49;57.07
40788;BME280;26497;52.494;7.546;2023-12-14T11:11:30;101184.88;;;12.54;57.22
40788;BME280;26497;52.494;7.546;2023-12-14T11:14:08;101202.50;;;12.65;57.18
40788;BME280;26497;52.494;7.546;2023-12-14T11:16:39;101198.09;;;12.65;57.01
40788;BME280;26497;52.494;7.546;2023-12-14T11:19:31;101198.97;;;12.69;56.91
40788;BME280;26497;52.494;7.546;2023-12-14T11:22:13;101207.78;;;12.69;57.13
40788;BME280;26497;52.494;7.546;2023-12-14T11:24:50;101205.16;;;12.71;57.21
40788;BME280;26497;52.494;7.546;2023-12-14T11:27:25;101208.66;;;12.72;57.44
40788;BME280;26497;52.494;7.546;2023-12-14T11:29:53;101210.44;;;12.79;56.79
40788;BME280;26497;52.494;7.546;2023-12-14T11:32:21;101215.72;;;12.85;55.42
40788;BME280;26497;52.494;7.546;2023-12-14T11:34:48;101221.91;;;12.78;55.63
40788;BME280;26497;52.494;7.546;2023-12-14T11:37:15;101236.03;;;12.81;55.51
40788;BME280;26497;52.494;7.546;2023-12-14T11:39:42;101226.31;;;12.73;56.01
40788;BME280;26497;52.494;7.546;2023-12-14T11:42:12;101232.50;;;12.70;56.28
40788;BME280;26497;52.494;7.546;2023-12-14T11:44:45;101231.59;;;12.76;56.72
40788;BME280;26497;52.494;7.546;2023-12-14T11:47:12;101223.69;;;12.93;56.33
40788;BME280;26497;52.494;7.546;2023-12-14T11:49:39;101226.28;;;13.10;55.96
40788;BME280;26497;52.494;7.546;2023-12-14T11:52:07;101220.97;;;13.16;55.49
40788;BME280;26497;52.494;7.546;2023-12-14T11:54:35;101220.09;;;13.17;54.82
40788;BME280;26497;52.494;7.546;2023-12-14T11:57:04;101217.44;;;13.14;55.12
40788;BME280;26497;52.494;7.546;2023-12-14T11:59:35;101219.19;;;13.31;54.58
40788;BME280;26497;52.494;7.546;2023-12-14T12:02:04;101220.03;;;13.31;54.82
40788;BME280;26497;52.494;7.546;2023-12-14T12:04:31;101212.94;;;13.52;54.75
40788;BME280;26497;52.494;7.546;2023-12-14T12:07:02;101226.09;;;13.74;53.35
40788;BME280;26497;52.494;7.546;2023-12-14T12:09:37;101228.75;;;13.77;52.70
40788;BME280;26497;52.494;7.546;2023-12-14T12:12:08;101226.09;;;13.78;51.55
40788;BME280;26497;52.494;7.546;2023-12-14T12:14:37;101223.53;;;13.63;51.46
40788;BME280;26497;52.494;7.546;2023-12-14T12:17:06;101232.41;;;13.46;52.40
40788;BME280;26497;52.494;7.546;2023-12-14T12:19:35;101234.16;;;13.50;52.17
40788;BME280;26497;52.494;7.546;2023-12-14T12:22:03;101235.91;;;13.47;52.13
40788;BME280;26497;52.494;7.546;2023-12-14T12:24:31;101231.53;;;13.47;52.29
40788;BME280;26497;52.494;7.546;2023-12-14T12:26:58;101235.06;;;13.49;52.38
40788;BME280;26497;52.494;7.546;2023-12-14T12:29:25;101236.78;;;13.56;52.71
40788;BME280;26497;52.494;7.546;2023-12-14T12:31:53;101237.63;;;13.71;52.02
40788;BME280;26497;52.494;7.546;2023-12-14T12:34:21;101244.69;;;13.64;51.92
40788;BME280;26497;52.494;7.546;2023-12-14T12:36:49;101240.28;;;13.68;51.48
40788;BME280;26497;52.494;7.546;2023-12-14T12:39:16;101244.69;;;13.64;51.82
40788;BME280;26497;52.494;7.546;2023-12-14T12:41:43;101246.47;;;13.62;51.79
40788;BME280;26497;52.494;7.546;2023-12-14T12:44:10;101255.34;;;13.56;51.47
40788;BME280;26497;52.494;7.546;2023-12-14T12:46:37;101265.06;;;13.44;51.81
40788;BME280;26497;52.494;7.546;2023-12-14T12:49:05;101263.31;;;13.35;51.99
40788;BME280;26497;52.494;7.546;2023-12-14T12:51:34;101257.16;;;13.26;52.48
40788;BME280;26497;52.494;7.546;2023-12-14T12:54:01;101263.34;;;13.19;52.86
40788;BME280;26497;52.494;7.546;2023-12-14T12:56:29;101266.03;;;12.99;53.18
40788;BME280;26497;52.494;7.546;2023-12-14T12:58:56;101266.91;;;12.87;53.61